createdAt,value
2018-01-28T00:00:32.641Z,101594.34
2018-01-28T00:03:01.118Z,101591.94
2018-01-28T00:05:29.573Z,101595.03
2018-01-28T00:07:58.024Z,101595.83
2018-01-28T00:10:26.524Z,101590.86
2018-01-28T00:12:54.969Z,101597.16
2018-01-28T00:15:23.444Z,101595.26
2018-01-28T00:17:51.929Z,101581.47
2018-01-28T00:20:20.497Z,101592.84
2018-01-28T00:22:48.913Z,101587.52
2018-01-28T00:25:17.356Z,101591.38
2018-01-28T00:27:45.878Z,101593.69
2018-01-28T00:30:14.292Z,101592.86
2018-01-28T00:32:42.771Z,101591.77
2018-01-28T00:35:11.229Z,101591.38
2018-01-28T00:37:39.767Z,101596.59
2018-01-28T00:40:08.200Z,101594.20
2018-01-28T00:42:36.674Z,101592.16
2018-01-28T00:45:05.126Z,101584.59
2018-01-28T00:47:33.637Z,101590.33
2018-01-28T00:50:02.079Z,101587.88
2018-01-28T00:52:30.543Z,101579.88
2018-01-28T00:54:58.960Z,101555.70
2018-01-28T00:57:27.416Z,101587.35
2018-01-28T00:59:55.814Z,101589.31
2018-01-28T01:02:24.331Z,101581.89
2018-01-28T01:04:52.857Z,101568.83
2018-01-28T01:07:21.304Z,101578.11
2018-01-28T01:09:49.781Z,101581.05
2018-01-28T01:12:18.228Z,101581.92
2018-01-28T01:14:46.644Z,101571.39
2018-01-28T01:17:15.101Z,101551.47
2018-01-28T01:19:43.525Z,101575.84
2018-01-28T01:22:12.034Z,101568.45
2018-01-28T01:24:40.545Z,101570.34
2018-01-28T01:27:09.045Z,101567.33
2018-01-28T01:29:37.521Z,101568.52
2018-01-28T01:32:05.996Z,101545.93
2018-01-28T01:34:34.498Z,101552.06
2018-01-28T01:37:02.947Z,101562.60
2018-01-28T01:39:31.455Z,101544.92
2018-01-28T01:41:59.876Z,101561.87
2018-01-28T01:44:28.405Z,101562.77
2018-01-28T01:46:56.930Z,101544.58
2018-01-28T01:49:35.248Z,101555.11
2018-01-28T01:52:03.779Z,101542.22
2018-01-28T01:54:32.257Z,101553.56
2018-01-28T01:57:00.746Z,101549.27
2018-01-28T01:59:29.216Z,101553.33
2018-01-28T02:01:57.624Z,101546.74
2018-01-28T02:04:26.071Z,101549.58
2018-01-28T02:06:54.552Z,101551.02
2018-01-28T02:09:23.065Z,101551.67
2018-01-28T02:11:51.484Z,101530.11
2018-01-28T02:14:20.019Z,101547.47
2018-01-28T02:16:48.489Z,101541.94
2018-01-28T02:19:16.936Z,101544.88
2018-01-28T02:21:45.371Z,101544.48
2018-01-28T02:24:13.820Z,101553.14
2018-01-28T02:26:42.381Z,101545.05
2018-01-28T02:29:10.875Z,101554.69
2018-01-28T02:31:39.331Z,101548.48
2018-01-28T02:34:07.833Z,101553.31
2018-01-28T02:36:36.280Z,101551.65
2018-01-28T02:39:04.822Z,101552.02
2018-01-28T02:41:33.258Z,101552.33
2018-01-28T02:44:01.709Z,101531.78
2018-01-28T02:46:30.129Z,101549.77
2018-01-28T02:48:58.612Z,101552.09
2018-01-28T02:51:27.090Z,101546.33
2018-01-28T02:53:55.569Z,101553.13
2018-01-28T02:56:24.015Z,101551.80
2018-01-28T02:58:52.425Z,101550.43
2018-01-28T03:01:20.868Z,101550.78
2018-01-28T03:03:49.285Z,101537.94
2018-01-28T03:06:17.752Z,101547.77
2018-01-28T03:08:46.168Z,101548.53
2018-01-28T03:11:14.612Z,101515.72
2018-01-28T03:13:43.076Z,101550.23
2018-01-28T03:16:11.557Z,101539.77
2018-01-28T03:18:40.041Z,101545.34
2018-01-28T03:21:08.461Z,101546.41
2018-01-28T03:23:36.876Z,101548.25
2018-01-28T03:26:05.361Z,101537.79
2018-01-28T03:28:33.860Z,101539.86
2018-01-28T03:31:03.068Z,101540.59
2018-01-28T03:33:31.591Z,101539.72
2018-01-28T03:36:00.061Z,101541.87
2018-01-28T03:38:28.544Z,101538.66
2018-01-28T03:40:57.811Z,101541.39
2018-01-28T03:43:26.267Z,101537.41
2018-01-28T03:45:54.708Z,101534.07
2018-01-28T03:48:23.268Z,101540.88
2018-01-28T03:50:51.668Z,101546.22
2018-01-28T03:53:20.126Z,101547.23
2018-01-28T03:55:48.542Z,101548.41
2018-01-28T03:58:16.989Z,101549.54
2018-01-28T04:00:45.489Z,101545.45
2018-01-28T04:03:13.902Z,101542.73
2018-01-28T04:05:42.352Z,101542.83
2018-01-28T04:08:10.782Z,101546.30
2018-01-28T04:10:39.219Z,101543.52
2018-01-28T04:13:07.674Z,101549.10
2018-01-28T04:15:36.136Z,101547.19
2018-01-28T04:18:04.552Z,101548.03
2018-01-28T04:20:32.991Z,101541.77
2018-01-28T04:23:01.435Z,101547.59
2018-01-28T04:25:29.848Z,101542.67
2018-01-28T04:27:58.293Z,101544.62
2018-01-28T04:30:26.760Z,101540.02
2018-01-28T04:32:55.230Z,101543.13
2018-01-28T04:35:23.746Z,101541.80
2018-01-28T04:37:52.254Z,101552.39
2018-01-28T04:40:20.696Z,101554.98
2018-01-28T04:42:49.172Z,101540.88
2018-01-28T04:45:17.663Z,101550.42
2018-01-28T04:47:46.169Z,101560.98
2018-01-28T04:50:14.584Z,101559.94
2018-01-28T04:52:43.029Z,101562.11
2018-01-28T04:55:11.473Z,101562.15
2018-01-28T04:57:39.897Z,101572.09
2018-01-28T05:00:08.364Z,101578.56
2018-01-28T05:02:36.865Z,101583.88
2018-01-28T05:05:05.354Z,101585.11
2018-01-28T05:07:33.891Z,101592.43
2018-01-28T05:10:02.316Z,101592.33
2018-01-28T05:12:30.820Z,101580.28
2018-01-28T05:14:59.232Z,101583.72
2018-01-28T05:17:27.665Z,101584.20
2018-01-28T05:19:56.167Z,101593.24
2018-01-28T05:22:25.177Z,101590.33
2018-01-28T05:24:53.678Z,101593.50
2018-01-28T05:27:22.179Z,101591.59
2018-01-28T05:29:50.593Z,101578.22
2018-01-28T05:32:19.037Z,101579.48
2018-01-28T05:34:47.484Z,101610.92
2018-01-28T05:37:15.950Z,101613.09
2018-01-28T05:39:44.352Z,101606.42
2018-01-28T05:42:12.863Z,101604.22
2018-01-28T05:44:41.369Z,101604.61
2018-01-28T05:47:09.793Z,101592.50
2018-01-28T05:49:38.296Z,101595.90
2018-01-28T05:52:06.811Z,101597.06
2018-01-28T05:54:35.313Z,101594.44
2018-01-28T05:57:03.789Z,101592.41
2018-01-28T05:59:32.238Z,101592.85
2018-01-28T06:02:01.553Z,101599.14
2018-01-28T06:04:30.034Z,101599.63
2018-01-28T06:06:58.531Z,101601.40
2018-01-28T06:09:26.980Z,101599.08
2018-01-28T06:11:55.445Z,101609.95
2018-01-28T06:14:23.961Z,101618.14
2018-01-28T06:16:52.368Z,101619.95
2018-01-28T06:19:20.878Z,101605.27
2018-01-28T06:21:49.288Z,101622.22
2018-01-28T06:24:17.743Z,101629.78
2018-01-28T06:26:46.237Z,101630.34
2018-01-28T06:29:14.693Z,101631.87
2018-01-28T06:31:43.169Z,101639.34
2018-01-28T06:34:11.633Z,101637.22
2018-01-28T06:36:40.109Z,101630.92
2018-01-28T06:39:08.573Z,101633.34
2018-01-28T06:41:37.000Z,101632.38
2018-01-28T06:44:05.469Z,101624.75
2018-01-28T06:46:33.907Z,101625.88
2018-01-28T06:49:02.365Z,101626.58
2018-01-28T06:51:30.878Z,101620.52
2018-01-28T06:53:59.337Z,101625.45
2018-01-28T06:56:27.783Z,101624.05
2018-01-28T06:58:56.255Z,101611.59
2018-01-28T07:01:24.729Z,101610.95
2018-01-28T07:03:53.187Z,101600.41
2018-01-28T07:06:21.605Z,101610.88
2018-01-28T07:08:50.042Z,101618.03
2018-01-28T07:11:18.487Z,101617.53
2018-01-28T07:13:47.086Z,101609.67
2018-01-28T07:16:15.498Z,101616.84
2018-01-28T07:18:43.953Z,101604.66
2018-01-28T07:21:12.402Z,101618.84
2018-01-28T07:23:40.845Z,101623.44
2018-01-28T07:26:09.258Z,101625.09
2018-01-28T07:28:37.654Z,101623.27
2018-01-28T07:31:06.089Z,101623.45
2018-01-28T07:33:34.553Z,101623.14
2018-01-28T07:36:03.002Z,101627.72
2018-01-28T07:38:31.416Z,101631.48
2018-01-28T07:40:59.853Z,101629.73
2018-01-28T07:43:28.296Z,101632.17
2018-01-28T07:45:56.760Z,101620.33
2018-01-28T07:48:25.168Z,101625.49
2018-01-28T07:50:53.621Z,101622.86
2018-01-28T07:53:22.171Z,101625.22
2018-01-28T07:55:50.624Z,101619.31
2018-01-28T07:58:19.107Z,101625.79
2018-01-28T08:00:47.627Z,101624.53
2018-01-28T08:03:16.064Z,101620.30
2018-01-28T08:05:44.461Z,101618.22
2018-01-28T08:08:12.916Z,101622.77
2018-01-28T08:10:48.624Z,101615.12
2018-01-28T08:13:22.534Z,101619.55
2018-01-28T08:15:50.997Z,101624.95
2018-01-28T08:18:19.461Z,101619.20
2018-01-28T08:20:47.937Z,101626.00
2018-01-28T08:23:16.421Z,101625.91
2018-01-28T08:25:44.884Z,101628.08
2018-01-28T08:28:13.393Z,101632.41
2018-01-28T08:30:41.853Z,101618.60
2018-01-28T08:33:10.368Z,101625.00
2018-01-28T08:35:38.834Z,101621.19
2018-01-28T08:38:07.244Z,101630.52
2018-01-28T08:40:35.721Z,101624.66
2018-01-28T08:43:04.209Z,101640.02
2018-01-28T08:45:32.649Z,101634.05
2018-01-28T08:48:01.991Z,101647.83
2018-01-28T08:50:30.533Z,101643.31
2018-01-28T08:52:59.005Z,101636.28
2018-01-28T08:55:28.596Z,101635.50
2018-01-28T08:57:57.097Z,101641.27
2018-01-28T09:00:25.500Z,101627.02
2018-01-28T09:02:53.946Z,101630.11
2018-01-28T09:05:22.854Z,101611.67
2018-01-28T09:07:51.301Z,101611.89
2018-01-28T09:10:19.748Z,101603.27
2018-01-28T09:12:48.242Z,101611.41
2018-01-28T09:15:16.762Z,101611.84
2018-01-28T09:17:45.201Z,101613.37
2018-01-28T09:20:13.673Z,101612.52
2018-01-28T09:22:42.138Z,101604.48
2018-01-28T09:25:10.632Z,101610.75
2018-01-28T09:27:39.078Z,101609.83
2018-01-28T09:30:07.489Z,101604.34
2018-01-28T09:32:36.000Z,101599.80
2018-01-28T09:35:04.418Z,101598.00
2018-01-28T09:37:32.918Z,101597.52
2018-01-28T09:40:01.372Z,101595.45
2018-01-28T09:42:29.847Z,101590.29
2018-01-28T09:44:58.293Z,101578.44
2018-01-28T09:47:26.790Z,101592.20
2018-01-28T09:49:55.214Z,101593.30
2018-01-28T09:52:23.612Z,101585.44
2018-01-28T09:54:52.119Z,101589.66
2018-01-28T09:57:20.594Z,101583.25
2018-01-28T09:59:49.085Z,101573.59
2018-01-28T10:02:17.524Z,101571.83
2018-01-28T10:04:45.955Z,101568.35
2018-01-28T10:07:14.393Z,101562.22
2018-01-28T10:09:42.853Z,101559.17
2018-01-28T10:12:11.340Z,101571.27
2018-01-28T10:14:39.737Z,101565.27
2018-01-28T10:17:08.164Z,101559.45
2018-01-28T10:19:36.684Z,101549.73
2018-01-28T10:22:05.138Z,101536.91
2018-01-28T10:24:33.558Z,101532.91
2018-01-28T10:27:02.012Z,101531.00
2018-01-28T10:29:30.457Z,101533.38
2018-01-28T10:31:58.892Z,101533.25
2018-01-28T10:34:27.284Z,101524.92
2018-01-28T10:36:55.762Z,101513.95
2018-01-28T10:39:24.145Z,101517.36
2018-01-28T10:41:52.600Z,101511.69
2018-01-28T10:44:21.060Z,101508.61
2018-01-28T10:46:49.502Z,101509.50
2018-01-28T10:49:17.990Z,101496.98
2018-01-28T10:51:46.389Z,101502.50
2018-01-28T10:54:14.882Z,101503.34
2018-01-28T10:56:43.277Z,101493.78
2018-01-28T10:59:11.670Z,101499.25
2018-01-28T11:01:40.169Z,101490.97
2018-01-28T11:04:08.571Z,101481.45
2018-01-28T11:06:36.989Z,101484.56
2018-01-28T11:09:05.513Z,101482.01
2018-01-28T11:11:33.962Z,101485.36
2018-01-28T11:14:02.460Z,101476.63
2018-01-28T11:16:30.901Z,101476.34
2018-01-28T11:18:59.389Z,101469.53
2018-01-28T11:21:27.844Z,101469.72
2018-01-28T11:23:56.249Z,101473.67
2018-01-28T11:26:24.733Z,101460.74
2018-01-28T11:28:53.235Z,101461.91
2018-01-28T11:31:21.636Z,101452.44
2018-01-28T11:33:50.025Z,101443.59
2018-01-28T11:36:18.519Z,101447.31
2018-01-28T11:38:46.998Z,101448.92
2018-01-28T11:41:15.424Z,101439.27
2018-01-28T11:43:43.821Z,101432.85
2018-01-28T11:46:12.244Z,101428.23
2018-01-28T11:48:40.632Z,101430.88
2018-01-28T11:51:09.076Z,101414.30
2018-01-28T11:53:37.454Z,101416.23
2018-01-28T11:56:05.838Z,101417.42
2018-01-28T11:58:34.291Z,101412.61
2018-01-28T12:01:02.709Z,101410.04
2018-01-28T12:03:31.153Z,101411.64
2018-01-28T12:05:59.549Z,101410.95
2018-01-28T12:08:27.981Z,101397.06
2018-01-28T12:10:56.377Z,101397.75
2018-01-28T12:13:24.873Z,101402.56
2018-01-28T12:15:53.264Z,101397.85
2018-01-28T12:18:21.762Z,101393.97
2018-01-28T12:20:50.197Z,101381.08
2018-01-28T12:23:18.575Z,101376.47
2018-01-28T12:25:47.022Z,101374.54
2018-01-28T12:28:15.429Z,101376.72
2018-01-28T12:30:43.860Z,101371.23
2018-01-28T12:33:12.281Z,101365.17
2018-01-28T12:35:40.779Z,101366.94
2018-01-28T12:38:09.222Z,101370.23
2018-01-28T12:40:37.663Z,101370.14
2018-01-28T12:43:06.088Z,101367.96
2018-01-28T12:45:34.605Z,101368.80
2018-01-28T12:48:02.986Z,101362.32
2018-01-28T12:50:31.404Z,101356.66
2018-01-28T12:52:59.881Z,101361.02
2018-01-28T12:55:28.368Z,101360.44
2018-01-28T12:57:56.793Z,101359.25
2018-01-28T13:00:25.171Z,101351.84
2018-01-28T13:02:53.655Z,101346.13
2018-01-28T13:05:22.085Z,101347.80
2018-01-28T13:07:50.521Z,101350.91
2018-01-28T13:10:18.961Z,101351.41
2018-01-28T13:12:47.410Z,101348.04
2018-01-28T13:15:15.866Z,101345.44
2018-01-28T13:17:44.312Z,101345.91
2018-01-28T13:20:12.732Z,101339.69
2018-01-28T13:22:41.129Z,101335.28
2018-01-28T13:25:09.630Z,101336.63
2018-01-28T13:27:38.035Z,101335.08
2018-01-28T13:30:06.568Z,101328.65
2018-01-28T13:32:35.026Z,101325.70
2018-01-28T13:35:03.520Z,101327.30
2018-01-28T13:37:31.988Z,101297.36
2018-01-28T13:40:00.491Z,101313.49
2018-01-28T13:42:28.965Z,101316.36
2018-01-28T13:44:57.424Z,101306.16
2018-01-28T13:47:25.870Z,101316.91
2018-01-28T13:49:54.257Z,101321.70
2018-01-28T13:52:22.745Z,101324.30
2018-01-28T13:54:51.206Z,101328.03
2018-01-28T13:57:19.637Z,101315.95
2018-01-28T13:59:48.092Z,101314.70
2018-01-28T14:02:16.532Z,101297.38
2018-01-28T14:04:44.953Z,101302.64
2018-01-28T14:07:13.384Z,101305.34
2018-01-28T14:09:41.816Z,101305.20
2018-01-28T14:12:10.262Z,101309.72
2018-01-28T14:14:38.863Z,101303.03
2018-01-28T14:17:07.316Z,101300.84
2018-01-28T14:19:35.715Z,101298.47
2018-01-28T14:22:04.129Z,101301.69
2018-01-28T14:24:32.566Z,101293.69
2018-01-28T14:27:00.998Z,101287.88
2018-01-28T14:29:29.513Z,101285.88
2018-01-28T14:31:57.973Z,101284.02
2018-01-28T14:34:26.469Z,101287.55
2018-01-28T14:36:54.869Z,101285.29
2018-01-28T14:39:23.308Z,101284.04
2018-01-28T14:41:51.701Z,101285.41
2018-01-28T14:44:20.175Z,101293.90
2018-01-28T14:46:48.623Z,101291.30
2018-01-28T14:49:17.040Z,101285.77
2018-01-28T14:51:45.507Z,101280.38
2018-01-28T14:54:13.973Z,101278.02
2018-01-28T14:56:42.485Z,101272.47
2018-01-28T14:59:10.935Z,101268.19
2018-01-28T15:01:39.399Z,101276.12
2018-01-28T15:04:07.788Z,101288.56
2018-01-28T15:06:36.216Z,101277.63
2018-01-28T15:09:04.669Z,101276.71
2018-01-28T15:11:33.157Z,101277.84
2018-01-28T15:14:01.567Z,101277.17
2018-01-28T15:16:30.066Z,101271.59
2018-01-28T15:18:58.557Z,101272.47
2018-01-28T15:21:26.962Z,101276.41
2018-01-28T15:23:55.397Z,101282.72
2018-01-28T15:26:23.853Z,101280.63
2018-01-28T15:28:52.305Z,101284.05
2018-01-28T15:31:20.697Z,101276.17
2018-01-28T15:33:49.158Z,101278.69
2018-01-28T15:36:17.557Z,101289.50
2018-01-28T15:38:46.053Z,101288.30
2018-01-28T15:41:14.481Z,101289.30
2018-01-28T15:43:42.996Z,101297.20
2018-01-28T15:46:11.456Z,101296.53
2018-01-28T15:48:39.891Z,101293.42
2018-01-28T15:51:08.355Z,101313.42
2018-01-28T15:53:36.820Z,101320.67
2018-01-28T15:56:05.309Z,101323.61
2018-01-28T15:58:33.717Z,101322.09
2018-01-28T16:01:02.149Z,101324.04
2018-01-28T16:03:30.580Z,101319.16
2018-01-28T16:05:58.993Z,101325.70
2018-01-28T16:08:27.421Z,101327.39
2018-01-28T16:10:55.821Z,101326.33
2018-01-28T16:13:24.254Z,101322.34
2018-01-28T16:15:52.782Z,101328.83
2018-01-28T16:18:21.285Z,101326.89
2018-01-28T16:20:49.677Z,101333.58
2018-01-28T16:23:18.117Z,101325.84
2018-01-28T16:25:46.541Z,101309.64
2018-01-28T16:28:14.969Z,101320.38
2018-01-28T16:30:43.492Z,101328.13
2018-01-28T16:33:11.901Z,101336.05
2018-01-28T16:35:40.457Z,101332.47
2018-01-28T16:38:08.893Z,101341.26
2018-01-28T16:40:37.341Z,101339.09
2018-01-28T16:43:05.769Z,101333.36
2018-01-28T16:45:34.241Z,101336.23
2018-01-28T16:48:02.693Z,101335.91
2018-01-28T16:50:31.201Z,101336.39
2018-01-28T16:52:59.697Z,101339.56
2018-01-28T16:55:28.144Z,101349.27
2018-01-28T16:57:56.643Z,101338.27
2018-01-28T17:00:25.114Z,101344.69
2018-01-28T17:02:53.613Z,101340.11
2018-01-28T17:05:22.053Z,101334.98
2018-01-28T17:07:50.498Z,101333.56
2018-01-28T17:10:18.941Z,101338.45
2018-01-28T17:12:47.347Z,101337.73
2018-01-28T17:15:15.770Z,101331.75
2018-01-28T17:17:44.187Z,101337.58
2018-01-28T17:20:12.628Z,101326.79
2018-01-28T17:22:41.103Z,101334.13
2018-01-28T17:25:09.561Z,101325.53
2018-01-28T17:27:38.045Z,101340.84
2018-01-28T17:30:06.480Z,101347.95
2018-01-28T17:32:34.870Z,101349.17
2018-01-28T17:35:03.329Z,101352.07
2018-01-28T17:37:31.741Z,101350.94
2018-01-28T17:40:00.201Z,101347.31
2018-01-28T17:42:28.645Z,101344.63
2018-01-28T17:44:57.101Z,101332.39
2018-01-28T17:47:25.545Z,101333.08
2018-01-28T17:49:53.944Z,101342.45
2018-01-28T17:52:22.384Z,101339.64
2018-01-28T17:54:50.885Z,101338.41
2018-01-28T17:57:19.359Z,101344.30
2018-01-28T17:59:47.870Z,101340.51
2018-01-28T18:02:16.273Z,101341.06
2018-01-28T18:04:44.777Z,101351.61
2018-01-28T18:07:13.181Z,101347.81
2018-01-28T18:09:41.618Z,101345.94
2018-01-28T18:12:10.018Z,101341.70
2018-01-28T18:14:38.486Z,101338.31
2018-01-28T18:17:06.913Z,101339.87
2018-01-28T18:19:35.417Z,101340.57
2018-01-28T18:22:03.858Z,101336.14
2018-01-28T18:24:32.332Z,101338.55
2018-01-28T18:27:00.740Z,101338.39
2018-01-28T18:29:29.145Z,101336.64
2018-01-28T18:31:57.589Z,101345.29
2018-01-28T18:34:25.993Z,101347.49
2018-01-28T18:36:54.436Z,101363.09
2018-01-28T18:39:22.873Z,101357.74
2018-01-28T18:41:51.326Z,101356.48
2018-01-28T18:44:19.724Z,101352.42
2018-01-28T18:46:48.140Z,101356.22
2018-01-28T18:49:16.616Z,101356.56
2018-01-28T18:51:45.017Z,101348.19
2018-01-28T18:54:13.517Z,101358.69
2018-01-28T18:56:41.935Z,101347.91
2018-01-28T18:59:10.376Z,101351.00
2018-01-28T19:01:38.853Z,101353.23
2018-01-28T19:04:07.257Z,101344.88
2018-01-28T19:06:35.729Z,101346.00
2018-01-28T19:09:04.217Z,101350.02
2018-01-28T19:11:32.641Z,101370.86
2018-01-28T19:14:01.048Z,101372.59
2018-01-28T19:16:29.565Z,101377.81
2018-01-28T19:18:57.972Z,101381.20
2018-01-28T19:21:26.434Z,101382.12
2018-01-28T19:23:54.876Z,101375.42
2018-01-28T19:26:23.277Z,101357.67
2018-01-28T19:28:51.724Z,101344.11
2018-01-28T19:31:20.130Z,101344.73
2018-01-28T19:33:48.594Z,101343.11
2018-01-28T19:36:16.982Z,101337.48
2018-01-28T19:38:45.397Z,101332.29
2018-01-28T19:41:13.893Z,101346.20
2018-01-28T19:43:42.320Z,101342.41
2018-01-28T19:46:10.770Z,101345.22
2018-01-28T19:48:39.236Z,101348.78
2018-01-28T19:51:07.646Z,101344.48
2018-01-28T19:53:36.146Z,101340.81
2018-01-28T19:56:04.595Z,101345.16
2018-01-28T19:58:33.028Z,101341.23
2018-01-28T20:01:01.497Z,101327.95
2018-01-28T20:03:29.931Z,101323.11
2018-01-28T20:05:58.437Z,101325.91
2018-01-28T20:08:26.884Z,101328.37
2018-01-28T20:10:55.389Z,101328.09
2018-01-28T20:13:23.869Z,101327.07
2018-01-28T20:15:52.284Z,101328.23
2018-01-28T20:18:20.725Z,101330.97
2018-01-28T20:20:49.182Z,101310.89
2018-01-28T20:23:17.644Z,101315.86
2018-01-28T20:25:46.117Z,101315.81
2018-01-28T20:28:14.542Z,101307.80
2018-01-28T20:30:42.985Z,101299.88
2018-01-28T20:33:11.397Z,101287.56
2018-01-28T20:35:39.832Z,101277.27
2018-01-28T20:38:08.293Z,101274.71
2018-01-28T20:40:36.721Z,101275.62
2018-01-28T20:43:05.232Z,101269.03
2018-01-28T20:45:33.628Z,101268.66
2018-01-28T20:48:02.089Z,101260.41
2018-01-28T20:50:30.544Z,101260.44
2018-01-28T20:52:58.958Z,101242.67
2018-01-28T20:55:27.364Z,101242.63
2018-01-28T20:57:55.804Z,101249.17
2018-01-28T21:00:24.265Z,101249.64
2018-01-28T21:02:52.705Z,101246.05
2018-01-28T21:05:21.223Z,101256.94
2018-01-28T21:07:49.668Z,101258.64
2018-01-28T21:10:18.129Z,101244.78
2018-01-28T21:12:46.532Z,101261.30
2018-01-28T21:15:14.987Z,101279.45
2018-01-28T21:17:43.453Z,101271.08
2018-01-28T21:20:11.893Z,101276.37
2018-01-28T21:22:40.304Z,101266.48
2018-01-28T21:25:08.808Z,101276.20
2018-01-28T21:27:37.253Z,101278.48
2018-01-28T21:30:05.750Z,101280.98
2018-01-28T21:32:34.225Z,101283.99
2018-01-28T21:35:02.675Z,101280.09
2018-01-28T21:37:31.117Z,101292.18
2018-01-28T21:39:59.623Z,101292.90
2018-01-28T21:42:28.029Z,101287.35
2018-01-28T21:44:56.479Z,101273.95
2018-01-28T21:47:24.915Z,101282.20
2018-01-28T21:49:53.424Z,101290.64
2018-01-28T21:52:21.830Z,101306.75
2018-01-28T21:54:50.269Z,101286.16
2018-01-28T21:57:18.726Z,101288.41
2018-01-28T21:59:47.198Z,101276.58
2018-01-28T22:02:15.656Z,101255.52
2018-01-28T22:04:44.077Z,101259.31
2018-01-28T22:07:12.540Z,101270.19
2018-01-28T22:09:41.069Z,101259.22
2018-01-28T22:12:09.496Z,101256.87
2018-01-28T22:14:37.949Z,101253.63
2018-01-28T22:17:06.353Z,101250.32
2018-01-28T22:19:34.817Z,101246.73
2018-01-28T22:22:03.220Z,101242.14
2018-01-28T22:24:31.705Z,101240.25
2018-01-28T22:27:00.174Z,101235.44
2018-01-28T22:29:28.637Z,101233.23
2018-01-28T22:31:57.080Z,101233.27
2018-01-28T22:34:25.544Z,101221.64
2018-01-28T22:36:54.005Z,101218.39
2018-01-28T22:39:22.485Z,101215.72
2018-01-28T22:41:50.943Z,101207.53
2018-01-28T22:44:19.424Z,101207.45
2018-01-28T22:46:47.946Z,101189.62
2018-01-28T22:49:16.353Z,101199.52
2018-01-28T22:51:44.803Z,101205.18
2018-01-28T22:54:13.228Z,101195.43
2018-01-28T22:56:42.734Z,101192.14
2018-01-28T22:59:11.157Z,101190.50
2018-01-28T23:01:39.572Z,101188.67
2018-01-28T23:04:08.051Z,101186.16
2018-01-28T23:06:36.493Z,101179.63
2018-01-28T23:09:04.945Z,101182.72
2018-01-28T23:11:33.397Z,101162.73
2018-01-28T23:14:01.808Z,101164.27
2018-01-28T23:16:30.326Z,101180.70
2018-01-28T23:18:58.773Z,101189.99
2018-01-28T23:21:27.275Z,101202.84
2018-01-28T23:23:55.688Z,101193.09
2018-01-28T23:26:24.096Z,101188.89
2018-01-28T23:28:52.634Z,101185.95
2018-01-28T23:31:21.059Z,101173.20
2018-01-28T23:33:49.469Z,101180.74
2018-01-28T23:36:17.904Z,101177.25
2018-01-28T23:38:46.373Z,101177.22
2018-01-28T23:41:14.781Z,101171.81
2018-01-28T23:43:43.225Z,101164.52
2018-01-28T23:46:11.740Z,101162.91
2018-01-28T23:48:40.148Z,101138.61
2018-01-28T23:51:08.609Z,101141.83
2018-01-28T23:53:37.073Z,101119.22
2018-01-28T23:56:05.566Z,101142.59
2018-01-28T23:58:34.005Z,101145.08
